Albee, South Dakota
Current Conditions -  °F | °C
As of 4:13 PM on Friday 24 Oct 2014 (Local Time) from KDXX Reporting Station
Clear Clear  
Wind Chill: 79°   Ceiling: Unl
Heat Index: 79°   Visibility: 10mi
Dew Point: 36°   Wind: 16mph
Humidity: 21%   Direction: 300°WNW
Pressure: 29.84"   Gusts: 22mph
Location:  45.0205°N, 96.5453°W
Report Text: KDXX 242113Z AUTO 30014G19KT 10SM CLR 26/02 A2984 RMK AO2
Loading
Personal Weather Stations






























Interactive Weather Map
Tropical Storm Tracking
New forecast layout! Learn more

10-Day Weather Forecast

Advertisements
Track Severe Weather on mobile